Time;durP1;ratioP1;P1;durP2;ratioP2;P2;SDS_P1;SDS_P2;PMS_P1;PMS_P2;Temp;Humidity;BMP_temperature;BMP_pressure;BME280_temperature;BME280_humidity;BME280_pressure;Samples;Min_cycle;Max_cycle;Signal;HPM_P1;HPM_P2
2021/12/21 00:02:24;;;;;;;18.70;9.05;;;-2.10;99.90;;;;;;5038060;28;20128;-72
2021/12/21 00:04:50;;;;;;;18.02;9.38;;;-2.10;99.90;;;;;;5038160;28;20059;-70
2021/12/21 00:07:16;;;;;;;19.00;8.82;;;-2.10;99.90;;;;;;5055751;28;20531;-70
2021/12/21 00:09:42;;;;;;;20.73;9.35;;;-2.10;99.90;;;;;;5055493;28;20053;-71
2021/12/21 00:12:09;;;;;;;16.75;8.65;;;-2.10;99.90;;;;;;5037748;28;20049;-72
2021/12/21 00:17:11;;;;;;;16.02;8.63;;;-2.20;99.90;;;;;;5055554;28;20060;-75
2021/12/21 00:22:30;;;;;;;14.20;8.05;;;-2.30;99.90;;;;;;5055293;28;20048;-71
2021/12/21 00:24:54;;;;;;;18.52;8.52;;;-2.30;99.90;;;;;;5055199;28;20416;-71
2021/12/21 00:27:20;;;;;;;19.17;10.07;;;-2.30;99.90;;;;;;5055334;28;20066;-70
2021/12/21 00:29:45;;;;;;;17.92;8.80;;;-2.30;99.90;;;;;;5036963;28;20123;-70
2021/12/21 00:32:11;;;;;;;17.98;9.85;;;-2.30;99.90;;;;;;5037528;28;20053;-70
2021/12/21 00:34:38;;;;;;;25.33;10.07;;;-2.30;99.90;;;;;;5055149;28;20488;-72
2021/12/21 00:37:04;;;;;;;14.43;8.05;;;-2.20;99.90;;;;;;5037095;28;20463;-72
2021/12/21 00:39:30;;;;;;;20.52;8.65;;;-2.30;99.90;;;;;;5037588;28;20385;-71
2021/12/21 00:41:55;;;;;;;15.70;7.95;;;-2.30;99.90;;;;;;5037386;28;20053;-73
2021/12/21 00:44:21;;;;;;;15.48;7.88;;;-1.50;99.90;;;;;;5037162;28;20049;-75
2021/12/21 00:46:47;;;;;;;18.58;7.93;;;-2.40;99.90;;;;;;5036670;28;20049;-73
2021/12/21 00:49:14;;;;;;;21.70;8.73;;;-2.50;99.90;;;;;;5037166;28;20084;-71
2021/12/21 00:51:45;;;;;;;18.75;8.43;;;-2.50;99.90;;;;;;5036943;28;20107;-73
2021/12/21 00:54:12;;;;;;;24.63;9.32;;;-2.50;99.90;;;;;;5054863;28;20110;-72
2021/12/21 00:56:37;;;;;;;17.92;7.82;;;-2.20;99.90;;;;;;5037169;28;20110;-74
2021/12/21 00:59:05;;;;;;;15.93;8.88;;;-2.40;99.90;;;;;;5054889;28;20049;-73
2021/12/21 01:01:31;;;;;;;15.07;7.70;;;-2.40;99.90;;;;;;5054281;28;20041;-73
2021/12/21 01:03:58;;;;;;;18.98;8.43;;;-2.50;99.90;;;;;;5054698;28;20041;-74
2021/12/21 01:12:05;;;;;;;19.17;7.35;;;-2.60;99.90;;;;;;4993214;28;20133;-73
2021/12/21 01:17:18;;;;;;;15.23;6.60;;;-2.70;99.90;;;;;;4992492;28;20133;-73
2021/12/21 01:19:50;;;;;;;15.48;6.30;;;-2.60;99.90;;;;;;4992655;28;20050;-74
2021/12/21 01:22:33;;;;;;;15.48;6.97;;;-2.60;99.90;;;;;;4992888;28;20074;-73
2021/12/21 01:27:57;;;;;;;16.40;7.55;;;-2.50;99.90;;;;;;4992917;28;19922;-72
2021/12/21 01:30:51;;;;;;;20.80;8.13;;;-2.50;99.90;;;;;;4992708;28;20506;-73
2021/12/21 01:33:36;;;;;;;18.23;7.80;;;-2.20;99.90;;;;;;4975698;28;20470;-72
2021/12/21 01:36:08;;;;;;;15.20;7.18;;;-2.50;99.90;;;;;;4992586;28;20125;-73
2021/12/21 01:41:27;;;;;;;21.50;8.23;;;-2.50;99.90;;;;;;4992533;28;20169;-72
2021/12/21 01:51:59;;;;;;;18.10;7.50;;;-2.50;99.90;;;;;;5035198;28;20106;-72
2021/12/21 01:54:26;;;;;;;14.70;7.05;;;-2.50;99.90;;;;;;5053864;28;20485;-73
2021/12/21 01:56:53;;;;;;;12.48;6.07;;;-2.50;99.90;;;;;;5053709;28;20041;-72
2021/12/21 01:59:19;;;;;;;16.83;8.25;;;-2.50;99.90;;;;;;5053664;28;20049;-71
2021/12/21 02:01:45;;;;;;;12.40;6.72;;;-2.50;99.90;;;;;;5053275;28;20126;-72
2021/12/21 02:04:15;;;;;;;13.65;6.80;;;-2.60;99.90;;;;;;5035520;28;20076;-73
2021/12/21 02:06:41;;;;;;;11.00;4.85;;;-2.60;99.90;;;;;;5053425;28;20053;-73
2021/12/21 02:09:07;;;;;;;10.90;5.63;;;-2.70;99.90;;;;;;5053463;28;20186;-72
2021/12/21 02:11:33;;;;;;;17.23;6.50;;;-2.70;99.90;;;;;;5053475;28;20144;-73
2021/12/21 02:13:59;;;;;;;12.07;6.07;;;-2.70;99.90;;;;;;5018730;28;20061;-73
2021/12/21 02:16:34;;;;;;;14.05;5.93;;;-2.70;99.90;;;;;;5053154;28;20059;-71
2021/12/21 02:19:08;;;;;;;14.50;5.80;;;-2.80;99.90;;;;;;5053586;28;20052;-72
2021/12/21 02:21:41;;;;;;;14.07;6.53;;;-2.80;99.90;;;;;;5052776;28;20045;-72
2021/12/21 02:24:13;;;;;;;11.98;5.97;;;-2.40;99.90;;;;;;5053133;28;20509;-71
2021/12/21 02:26:47;;;;;;;13.50;7.17;;;-2.80;99.90;;;;;;5053288;28;20033;-72
2021/12/21 02:29:18;;;;;;;13.07;6.75;;;-2.80;99.90;;;;;;5035158;28;20083;-72
2021/12/21 02:31:49;;;;;;;18.17;6.57;;;-2.90;99.90;;;;;;5036178;28;20045;-72
2021/12/21 02:34:17;;;;;;;13.63;6.82;;;-2.80;99.90;;;;;;5053252;28;20045;-73
2021/12/21 02:36:45;;;;;;;13.55;7.05;;;-2.80;99.90;;;;;;5034552;28;20045;-73
2021/12/21 02:39:12;;;;;;;15.80;6.68;;;-2.90;99.90;;;;;;5053081;28;20037;-73
2021/12/21 02:41:38;;;;;;;11.13;5.88;;;-2.90;99.90;;;;;;5052954;28;20553;-71
2021/12/21 02:44:05;;;;;;;14.55;6.72;;;-2.90;99.90;;;;;;5053338;28;20044;-72
2021/12/21 02:46:31;;;;;;;13.60;5.90;;;-2.90;99.90;;;;;;5052015;28;20124;-72
2021/12/21 02:48:57;;;;;;;13.98;6.82;;;-2.90;99.90;;;;;;5053136;28;20112;-72
2021/12/21 02:51:23;;;;;;;14.25;6.47;;;-2.90;99.90;;;;;;5052950;28;20056;-71
2021/12/21 02:53:49;;;;;;;13.20;6.53;;;-3.00;99.90;;;;;;5034723;28;20049;-72
2021/12/21 02:56:15;;;;;;;13.20;6.43;;;-1.80;99.90;;;;;;5052746;28;20557;-69
2021/12/21 02:58:42;;;;;;;12.38;6.78;;;-3.00;99.90;;;;;;5034746;28;20162;-72
2021/12/21 03:01:10;;;;;;;16.50;7.38;;;-2.80;99.90;;;;;;5038984;28;20049;-72
2021/12/21 03:03:36;;;;;;;17.15;7.60;;;-3.00;99.90;;;;;;5057163;28;20500;-74
2021/12/21 03:06:04;;;;;;;19.45;9.45;;;-3.00;99.90;;;;;;5057003;28;20041;-73
2021/12/21 03:08:39;;;;;;;15.23;7.68;;;-3.00;99.90;;;;;;5022062;28;20056;-72
2021/12/21 03:16:20;;;;;;;18.50;8.82;;;-3.00;99.90;;;;;;5056825;28;20114;-72
2021/12/21 03:18:45;;;;;;;18.65;8.90;;;-2.90;99.90;;;;;;5056771;28;20033;-73
2021/12/21 03:21:12;;;;;;;17.48;8.52;;;-2.90;99.90;;;;;;5038627;28;20060;-73
2021/12/21 03:23:39;;;;;;;16.23;8.80;;;-2.90;99.90;;;;;;5055871;28;20381;-71
2021/12/21 03:26:04;;;;;;;14.25;7.55;;;-2.90;99.90;;;;;;5056387;28;20055;-72
2021/12/21 03:28:30;;;;;;;17.13;9.00;;;-2.90;99.90;;;;;;5054833;28;20132;-73
2021/12/21 03:30:56;;;;;;;16.90;8.70;;;-2.90;99.90;;;;;;5056323;28;20049;-72
2021/12/21 03:33:22;;;;;;;17.45;9.43;;;-2.90;99.90;;;;;;5056597;28;20103;-68
2021/12/21 03:35:48;;;;;;;17.38;9.32;;;-2.90;99.90;;;;;;5056311;28;20403;-71
2021/12/21 03:38:15;;;;;;;17.40;9.02;;;-2.90;99.90;;;;;;5056201;28;20044;-72
2021/12/21 03:40:41;;;;;;;17.17;7.32;;;-2.90;99.90;;;;;;5055476;28;20088;-74
2021/12/21 03:43:06;;;;;;;11.60;6.05;;;-3.00;99.90;;;;;;5056094;28;20055;-73
2021/12/21 03:45:37;;;;;;;13.57;6.70;;;-3.00;99.90;;;;;;5038336;28;20051;-72
2021/12/21 03:48:03;;;;;;;13.18;6.38;;;-3.10;99.90;;;;;;5056246;28;20045;-73
2021/12/21 03:50:28;;;;;;;16.05;7.40;;;-3.10;99.90;;;;;;5056127;28;20496;-72
2021/12/21 03:52:54;;;;;;;14.63;7.90;;;-3.20;99.90;;;;;;5037981;28;20048;-72
2021/12/21 03:55:20;;;;;;;14.50;6.60;;;-3.20;99.90;;;;;;5055585;28;20037;-71
2021/12/21 03:57:46;;;;;;;15.13;7.22;;;-3.20;99.90;;;;;;5055764;28;20099;-72
2021/12/21 04:00:14;;;;;;;13.80;7.18;;;-3.30;99.90;;;;;;5055910;28;20087;-72
2021/12/21 04:02:40;;;;;;;12.43;6.43;;;-3.40;99.90;;;;;;5056008;28;20447;-72
2021/12/21 04:05:06;;;;;;;17.77;7.28;;;-3.40;99.90;;;;;;5055838;28;20033;-72
2021/12/21 04:07:32;;;;;;;14.55;7.45;;;-3.40;99.90;;;;;;5055516;28;20523;-72
2021/12/21 04:09:58;;;;;;;17.42;8.90;;;-3.40;99.90;;;;;;5037552;28;20080;-72
2021/12/21 04:12:24;;;;;;;19.88;9.48;;;-3.30;99.90;;;;;;5036951;28;20071;-72
2021/12/21 04:14:50;;;;;;;19.95;9.85;;;-3.20;99.90;;;;;;5055845;28;20041;-72
2021/12/21 04:17:21;;;;;;;21.73;10.32;;;-3.20;99.90;;;;;;5055645;28;20043;-72
2021/12/21 04:19:47;;;;;;;17.55;9.07;;;-3.30;99.90;;;;;;5037627;28;20049;-72
2021/12/21 04:22:13;;;;;;;17.77;8.98;;;-3.30;99.90;;;;;;5037463;28;20076;-72
2021/12/21 04:24:39;;;;;;;19.63;9.95;;;-3.30;99.90;;;;;;5055322;28;20048;-73
2021/12/21 04:27:05;;;;;;;19.83;9.40;;;-3.30;99.90;;;;;;5037147;28;20041;-72
2021/12/21 04:29:31;;;;;;;17.40;8.95;;;-3.40;99.90;;;;;;5055132;28;20053;-72
2021/12/21 04:31:56;;;;;;;17.27;8.98;;;-2.80;99.90;;;;;;5055354;28;20048;-73
2021/12/21 04:34:22;;;;;;;16.15;7.97;;;-3.40;99.90;;;;;;5036759;28;20139;-73
2021/12/21 04:36:48;;;;;;;16.52;8.98;;;-3.40;99.90;;;;;;5037597;28;20388;-72
2021/12/21 04:41:58;;;;;;;18.38;8.45;;;-3.40;99.90;;;;;;5054985;28;20493;-73
2021/12/21 04:44:23;;;;;;;18.15;9.02;;;-3.40;99.90;;;;;;5036544;28;20052;-72
2021/12/21 04:46:49;;;;;;;19.08;10.25;;;-3.40;99.90;;;;;;5055044;28;20044;-71
2021/12/21 04:49:14;;;;;;;16.02;9.75;;;-3.30;99.90;;;;;;5054768;28;20037;-73
2021/12/21 04:51:40;;;;;;;17.08;8.60;;;-3.30;99.90;;;;;;5036957;28;20045;-73
2021/12/21 04:54:06;;;;;;;17.35;8.57;;;-3.30;99.90;;;;;;5037123;28;20056;-73
2021/12/21 04:56:31;;;;;;;15.88;9.30;;;-3.30;99.90;;;;;;5054762;28;20041;-73
2021/12/21 04:58:57;;;;;;;20.58;9.73;;;-2.40;99.90;;;;;;5054522;28;20123;-73
2021/12/21 05:01:23;;;;;;;17.08;8.57;;;-3.30;99.90;;;;;;5054695;28;20041;-73
2021/12/21 05:03:48;;;;;;;22.90;9.57;;;-3.30;99.90;;;;;;5036868;28;20124;-72
2021/12/21 05:06:15;;;;;;;18.00;9.98;;;-3.40;99.90;;;;;;5054595;28;20045;-72
2021/12/21 05:08:41;;;;;;;17.77;8.63;;;-3.60;99.90;;;;;;5036231;28;20102;-72
2021/12/21 05:11:08;;;;;;;19.85;8.63;;;-3.60;99.90;;;;;;5054585;28;20485;-72
2021/12/21 05:13:38;;;;;;;20.63;8.45;;;-3.60;99.90;;;;;;5019986;28;20056;-72
2021/12/21 05:16:05;;;;;;;19.05;8.93;;;-3.50;99.90;;;;;;5054152;28;20041;-72
2021/12/21 05:18:32;;;;;;;15.90;8.73;;;-3.50;99.90;;;;;;5053115;28;20088;-72
2021/12/21 05:20:59;;;;;;;20.42;8.35;;;-3.60;99.90;;;;;;5054416;28;20049;-72
2021/12/21 05:23:24;;;;;;;17.75;8.60;;;-3.60;99.90;;;;;;5052840;28;20548;-71
2021/12/21 05:25:50;;;;;;;16.75;8.43;;;-3.60;99.90;;;;;;5036399;28;20183;-72
2021/12/21 05:28:17;;;;;;;18.88;9.43;;;-3.60;99.90;;;;;;5054363;28;20064;-72
2021/12/21 05:30:43;;;;;;;17.10;9.07;;;-3.60;99.90;;;;;;5052503;28;20041;-71
2021/12/21 05:33:09;;;;;;;16.05;8.13;;;-3.70;99.90;;;;;;5052847;28;20169;-72
2021/12/21 05:35:36;;;;;;;17.70;9.30;;;-3.60;99.90;;;;;;5053951;28;20119;-72
2021/12/21 05:38:05;;;;;;;16.88;8.45;;;-3.60;99.90;;;;;;5036377;28;20396;-72
2021/12/21 05:40:38;;;;;;;17.50;8.82;;;-3.60;99.90;;;;;;5053983;28;20045;-72
2021/12/21 05:43:05;;;;;;;18.75;8.70;;;-3.50;99.90;;;;;;5036006;28;20053;-71
2021/12/21 05:45:31;;;;;;;14.18;8.02;;;-3.50;99.90;;;;;;5053719;28;20501;-71
2021/12/21 05:47:57;;;;;;;16.77;8.02;;;-3.60;99.90;;;;;;5053372;28;20047;-70
2021/12/21 05:50:22;;;;;;;14.98;8.20;;;-3.60;99.90;;;;;;5035599;28;20056;-70
2021/12/21 05:52:50;;;;;;;15.68;7.85;;;-3.70;99.90;;;;;;5053571;28;20048;-72
2021/12/21 05:55:17;;;;;;;15.32;8.07;;;-3.70;99.90;;;;;;5053856;28;20053;-72
2021/12/21 05:57:43;;;;;;;15.27;8.00;;;-3.70;99.90;;;;;;5052739;28;20127;-74
2021/12/21 06:00:14;;;;;;;16.75;7.60;;;-3.80;99.90;;;;;;5053562;28;20049;-72
2021/12/21 06:02:40;;;;;;;17.73;7.95;;;-3.80;99.90;;;;;;5053178;28;20049;-72
2021/12/21 06:05:06;;;;;;;17.67;7.78;;;-3.80;99.90;;;;;;5035802;28;20441;-73
2021/12/21 06:07:33;;;;;;;14.57;7.75;;;-3.80;99.90;;;;;;5051666;28;20056;-69
2021/12/21 06:10:00;;;;;;;16.00;8.05;;;-3.80;99.90;;;;;;5053469;28;20052;-72
2021/12/21 06:27:51;;;;;;;14.98;7.72;;;-3.50;99.90;;;;;;5053073;28;20049;-72
2021/12/21 06:30:17;;;;;;;14.38;7.50;;;-3.50;99.90;;;;;;5053261;28;20493;-72
2021/12/21 06:32:43;;;;;;;16.02;7.57;;;-3.50;99.90;;;;;;5052886;28;20045;-73
2021/12/21 06:35:09;;;;;;;14.52;7.05;;;-3.50;99.90;;;;;;5052467;28;20040;-73
2021/12/21 06:37:35;;;;;;;13.05;7.07;;;-3.50;99.90;;;;;;5053125;28;20057;-73
2021/12/21 06:40:01;;;;;;;13.43;7.05;;;-3.40;99.90;;;;;;5053137;28;20458;-72
2021/12/21 06:42:28;;;;;;;13.27;6.18;;;-3.40;99.90;;;;;;5052952;28;20048;-70
2021/12/21 06:44:58;;;;;;;17.35;7.40;;;-3.40;99.90;;;;;;5052887;28;20045;-71
2021/12/21 06:52:53;;;;;;;14.80;7.25;;;-3.40;99.90;;;;;;5052739;28;20542;-71
2021/12/21 06:55:19;;;;;;;15.27;6.90;;;-3.40;99.90;;;;;;5052970;28;20037;-71
2021/12/21 06:57:45;;;;;;;17.70;7.45;;;-3.50;99.90;;;;;;5034804;28;20171;-72
2021/12/21 07:00:16;;;;;;;15.48;7.18;;;-3.50;99.90;;;;;;5052976;28;20120;-72
2021/12/21 07:02:42;;;;;;;17.15;7.18;;;-3.60;99.90;;;;;;5052921;28;20400;-72
2021/12/21 07:05:09;;;;;;;14.57;7.55;;;-4.10;99.90;;;;;;5034919;28;20048;-73
2021/12/21 07:07:36;;;;;;;16.55;7.25;;;-3.80;99.90;;;;;;5034847;28;20064;-70
2021/12/21 07:10:04;;;;;;;14.77;7.75;;;-3.70;99.90;;;;;;5052321;28;20037;-71
2021/12/21 07:18:00;;;;;;;14.30;7.15;;;-3.70;99.90;;;;;;5052687;28;20400;-72
2021/12/21 07:20:26;;;;;;;14.25;6.93;;;-3.70;99.90;;;;;;5052793;28;20045;-73
2021/12/21 07:22:52;;;;;;;14.60;7.15;;;-3.60;99.90;;;;;;5034206;28;20053;-72
2021/12/21 07:25:17;;;;;;;16.50;7.32;;;-3.70;99.90;;;;;;5052270;28;20037;-71
2021/12/21 07:27:43;;;;;;;15.95;7.05;;;-3.70;99.90;;;;;;5034232;28;20049;-72
2021/12/21 07:30:09;;;;;;;13.82;7.70;;;-3.70;99.90;;;;;;5034559;28;20492;-72
2021/12/21 07:32:35;;;;;;;14.77;6.90;;;-3.60;99.90;;;;;;5052512;28;20053;-79
2021/12/21 07:35:01;;;;;;;16.40;7.43;;;-3.60;99.90;;;;;;5034883;28;20053;-77
2021/12/21 07:37:26;;;;;;;17.52;7.60;;;-3.60;99.90;;;;;;5034707;28;20053;-70
2021/12/21 07:39:52;;;;;;;14.30;7.72;;;-3.60;99.90;;;;;;5032164;28;20053;-71
2021/12/21 07:42:19;;;;;;;17.83;7.93;;;-3.60;99.90;;;;;;5051518;28;20081;-73
2021/12/21 07:44:45;;;;;;;14.75;7.40;;;-3.60;99.90;;;;;;5033637;28;20081;-73
2021/12/21 07:47:11;;;;;;;15.35;7.57;;;-3.60;99.90;;;;;;5036593;28;20085;-71
2021/12/21 07:49:37;;;;;;;12.80;6.65;;;-3.60;99.90;;;;;;5054904;28;20045;-73
2021/12/21 07:52:03;;;;;;;14.07;7.10;;;-3.60;99.90;;;;;;5036612;28;20141;-71
2021/12/21 07:54:29;;;;;;;16.27;7.45;;;-3.60;99.90;;;;;;5054651;28;20045;-72
2021/12/21 07:56:54;;;;;;;19.88;7.10;;;-3.60;99.90;;;;;;5054578;28;20123;-71
2021/12/21 07:59:20;;;;;;;14.60;7.53;;;-3.50;99.90;;;;;;5054643;28;20496;-73
2021/12/21 08:01:46;;;;;;;12.98;7.07;;;-3.60;99.90;;;;;;5055104;28;20053;-72
2021/12/21 08:04:12;;;;;;;12.48;7.38;;;-3.60;99.90;;;;;;5053009;28;20048;-73
2021/12/21 08:06:39;;;;;;;14.73;7.15;;;-3.40;99.90;;;;;;5054881;28;20041;-75
2021/12/21 08:09:05;;;;;;;12.75;7.60;;;-3.60;99.90;;;;;;5053896;28;20082;-70
2021/12/21 08:14:01;;;;;;;13.52;7.07;;;-3.60;99.90;;;;;;5054664;28;20072;-71
2021/12/21 08:16:27;;;;;;;17.80;7.50;;;-3.50;99.90;;;;;;5054298;28;20040;-74
2021/12/21 08:18:53;;;;;;;18.60;8.43;;;-3.40;99.90;;;;;;5054956;28;20496;-70
2021/12/21 08:21:19;;;;;;;16.35;7.32;;;-3.50;99.90;;;;;;5035628;28;20424;-71
2021/12/21 08:23:46;;;;;;;15.18;7.05;;;-3.40;99.90;;;;;;5037220;28;20408;-70
2021/12/21 08:26:12;;;;;;;17.02;7.95;;;-3.40;99.90;;;;;;5035413;28;20049;-71
2021/12/21 08:28:38;;;;;;;14.65;7.75;;;-3.40;99.90;;;;;;5054369;28;20122;-72
2021/12/21 08:31:04;;;;;;;15.55;8.05;;;-3.30;99.90;;;;;;5036447;28;20130;-73
2021/12/21 08:33:30;;;;;;;16.20;8.18;;;-3.30;99.90;;;;;;5052347;28;20045;-70
2021/12/21 08:35:56;;;;;;;17.35;7.78;;;-3.20;99.90;;;;;;5054969;28;20132;-73
2021/12/21 08:38:22;;;;;;;14.20;7.32;;;-3.30;99.90;;;;;;5036974;28;20072;-71
2021/12/21 08:40:50;;;;;;;15.27;7.38;;;-3.20;99.90;;;;;;5037238;28;20056;-71
2021/12/21 08:43:24;;;;;;;15.10;7.68;;;-3.20;99.90;;;;;;5054659;28;20128;-74
2021/12/21 08:45:51;;;;;;;16.10;7.22;;;-3.20;99.90;;;;;;5053559;28;20040;-75
2021/12/21 08:48:18;;;;;;;20.38;7.32;;;-3.10;99.90;;;;;;5033833;28;20455;-69
2021/12/21 08:50:44;;;;;;;17.08;8.50;;;-3.10;99.90;;;;;;5052409;28;20048;-70
2021/12/21 08:53:13;;;;;;;15.05;7.35;;;-3.10;99.90;;;;;;5049904;28;20488;-71
2021/12/21 08:55:40;;;;;;;16.10;7.35;;;-3.00;99.90;;;;;;4987351;28;20058;-70
2021/12/21 08:58:07;;;;;;;16.70;6.72;;;-3.00;99.90;;;;;;5030337;28;20053;-72
2021/12/21 09:00:33;;;;;;;14.63;7.13;;;-3.00;99.90;;;;;;5012209;28;20136;-72
2021/12/21 09:02:58;;;;;;;15.05;7.15;;;-2.90;99.90;;;;;;5013585;28;20145;-73
2021/12/21 09:05:27;;;;;;;14.23;6.22;;;-3.00;99.90;;;;;;5030397;28;20049;-70
2021/12/21 09:07:54;;;;;;;14.65;7.25;;;-2.90;99.90;;;;;;5030921;28;20421;-69
2021/12/21 09:10:22;;;;;;;15.15;7.43;;;-2.90;99.90;;;;;;5031877;28;20049;-69
2021/12/21 09:12:48;;;;;;;14.45;6.78;;;-2.80;99.90;;;;;;5012629;28;20077;-70
2021/12/21 09:15:16;;;;;;;16.30;7.55;;;-2.80;99.90;;;;;;5013747;28;20100;-69
2021/12/21 09:17:44;;;;;;;12.82;7.07;;;-2.70;99.90;;;;;;5012315;28;20068;-70
2021/12/21 09:20:13;;;;;;;15.23;6.88;;;-2.70;99.90;;;;;;5030089;28;20053;-69
2021/12/21 09:22:39;;;;;;;14.30;6.80;;;-2.60;99.90;;;;;;5030023;28;20049;-70
2021/12/21 09:25:05;;;;;;;12.73;6.80;;;-2.60;99.90;;;;;;5013008;28;20057;-68
2021/12/21 09:27:31;;;;;;;14.23;6.97;;;-2.50;99.90;;;;;;5013140;28;20057;-68
2021/12/21 09:29:57;;;;;;;12.93;7.38;;;-2.50;99.90;;;;;;5027225;28;20069;-69
2021/12/21 09:32:25;;;;;;;14.60;6.53;;;-2.40;99.90;;;;;;5012687;28;20057;-73
2021/12/21 09:34:51;;;;;;;15.23;5.93;;;-2.40;99.90;;;;;;5006930;28;20132;-70
2021/12/21 09:37:20;;;;;;;15.15;7.30;;;-2.30;99.90;;;;;;4991361;28;20054;-74
2021/12/21 09:39:54;;;;;;;14.15;7.07;;;-2.30;99.90;;;;;;4992105;28;20505;-69
2021/12/21 09:42:28;;;;;;;15.63;6.72;;;-2.20;99.90;;;;;;4993304;28;20046;-68
2021/12/21 09:44:55;;;;;;;17.33;6.88;;;-2.10;99.90;;;;;;5012236;28;20046;-72
2021/12/21 09:47:21;;;;;;;16.42;6.75;;;-2.00;99.90;;;;;;4994544;28;20459;-70
2021/12/21 09:49:48;;;;;;;14.95;6.35;;;-1.90;99.90;;;;;;5009733;28;20050;-72
2021/12/21 09:52:20;;;;;;;14.32;7.65;;;-1.90;99.90;;;;;;4993378;28;20046;-76
2021/12/21 09:54:46;;;;;;;;;;;-1.80;99.90;;;;;;5008778;28;20045;-70
2021/12/21 09:57:16;;;;;;;13.70;7.18;;;-1.20;99.90;;;;;;4993436;28;19925;-75
2021/12/21 09:59:45;;;;;;;11.90;6.55;;;-1.70;99.90;;;;;;5010667;28;20096;-74
2021/12/21 10:02:11;;;;;;;12.90;6.38;;;-1.70;99.90;;;;;;4996913;28;20052;-73
2021/12/21 10:04:52;;;;;;;15.68;6.80;;;-1.60;99.90;;;;;;4992114;28;20846;-72
2021/12/21 10:07:20;;;;;;;13.93;6.55;;;-1.50;99.90;;;;;;5013577;28;20038;-71
2021/12/21 10:09:47;;;;;;;13.27;5.85;;;-1.40;99.90;;;;;;5008170;28;20053;-72
2021/12/21 10:12:29;;;;;;;14.65;6.38;;;-1.30;99.90;;;;;;5005238;28;20037;-73
2021/12/21 10:15:17;;;;;;;13.30;6.43;;;-1.30;99.90;;;;;;5029410;28;20053;-72
2021/12/21 10:17:58;;;;;;;13.82;6.20;;;-1.20;99.90;;;;;;5010320;28;20077;-73
2021/12/21 10:20:50;;;;;;;12.70;5.85;;;-1.10;99.90;;;;;;5029749;28;20045;-86
2021/12/21 10:23:29;;;;;;;12.52;6.00;;;-1.00;99.90;;;;;;5018126;28;20568;-72
2021/12/21 10:25:58;;;;;;;12.32;5.78;;;-1.00;99.90;;;;;;5007929;28;20501;-69
2021/12/21 10:28:29;;;;;;;12.02;5.90;;;-0.90;99.90;;;;;;4992029;28;20045;-69
2021/12/21 10:30:56;;;;;;;11.23;5.97;;;-0.80;99.90;;;;;;4993528;28;20058;-72
2021/12/21 10:33:24;;;;;;;12.50;5.97;;;-0.70;99.90;;;;;;4993177;28;20092;-70
2021/12/21 10:35:51;;;;;;;11.27;4.88;;;-0.70;99.90;;;;;;4992977;28;20100;-72
2021/12/21 10:38:52;;;;;;;11.73;5.45;;;-0.60;99.90;;;;;;5010951;28;20108;-69
2021/12/21 10:41:28;;;;;;;14.10;6.30;;;-0.50;99.90;;;;;;5023441;28;20045;-70
2021/12/21 10:44:10;;;;;;;10.45;5.20;;;-0.40;99.90;;;;;;5029531;28;20054;-71
2021/12/21 10:46:39;;;;;;;12.75;5.70;;;-0.40;99.90;;;;;;5011282;28;20076;-70
2021/12/21 10:49:07;;;;;;;12.13;5.32;;;0.50;99.90;;;;;;4982886;28;20066;-72
2021/12/21 10:51:33;;;;;;;12.40;5.00;;;0.50;99.90;;;;;;4992919;28;20584;-72
2021/12/21 10:53:59;;;;;;;12.63;5.07;;;-0.20;99.90;;;;;;5011774;28;20042;-71
2021/12/21 10:56:25;;;;;;;11.20;5.00;;;-0.10;99.90;;;;;;5011137;28;20120;-70
2021/12/21 10:58:50;;;;;;;12.68;5.90;;;0.00;99.90;;;;;;4975069;28;20042;-71
2021/12/21 11:01:22;;;;;;;11.90;5.53;;;0.00;99.90;;;;;;4994153;28;20520;-70
2021/12/21 11:03:54;;;;;;;11.57;5.40;;;0.00;99.90;;;;;;5022676;28;20069;-74
2021/12/21 11:06:30;;;;;;;12.07;5.63;;;0.20;99.90;;;;;;5028952;28;20156;-73
2021/12/21 11:08:57;;;;;;;14.65;6.22;;;0.20;99.90;;;;;;5008682;28;20424;-70
2021/12/21 11:11:30;;;;;;;12.23;5.90;;;0.30;99.90;;;;;;5010843;28;20064;-73
2021/12/21 11:14:03;;;;;;;13.63;5.75;;;0.40;99.90;;;;;;5011627;28;20072;-73
2021/12/21 11:16:42;;;;;;;12.70;5.28;;;0.50;99.90;;;;;;5009074;28;20052;-71
2021/12/21 11:19:11;;;;;;;9.75;4.93;;;0.50;99.90;;;;;;5009341;28;20118;-72
2021/12/21 11:21:37;;;;;;;13.20;4.85;;;0.60;99.90;;;;;;5030882;28;20053;-71
2021/12/21 11:24:09;;;;;;;14.50;5.65;;;0.70;99.90;;;;;;5015293;28;20516;-71
2021/12/21 11:26:36;;;;;;;12.60;5.40;;;0.70;99.90;;;;;;4996693;28;20050;-72
2021/12/21 11:29:12;;;;;;;14.30;6.10;;;0.80;99.90;;;;;;5020557;28;20053;-72
2021/12/21 11:31:41;;;;;;;11.63;5.35;;;0.90;99.90;;;;;;5011036;28;20137;-74
2021/12/21 11:34:13;;;;;;;12.93;5.63;;;1.00;99.90;;;;;;4996163;28;20060;-73
2021/12/21 11:39:31;;;;;;;12.70;5.95;;;1.10;99.90;;;;;;4992829;28;20558;-72
2021/12/21 11:41:57;;;;;;;11.65;5.43;;;1.20;99.90;;;;;;4997651;28;20095;-71
2021/12/21 11:44:29;;;;;;;13.93;5.68;;;1.20;99.90;;;;;;5005530;28;20485;-73
2021/12/21 11:47:07;;;;;;;12.95;5.45;;;1.20;99.90;;;;;;5028685;28;20386;-72
2021/12/21 11:49:49;;;;;;;12.38;5.18;;;1.20;99.90;;;;;;5021493;28;20045;-69
2021/12/21 11:52:16;;;;;;;9.75;5.18;;;1.30;99.90;;;;;;5018541;28;20045;-71
2021/12/21 11:58:16;;;;;;;12.70;4.85;;;1.40;99.90;;;;;;5190172;23;20099;-77
2021/12/21 12:01:04;;;;;;;11.68;5.05;;;1.50;99.90;;;;;;5019195;28;20132;-72
2021/12/21 12:03:34;;;;;;;11.02;4.72;;;1.50;99.90;;;;;;5053529;28;20399;-78
2021/12/21 12:06:04;;;;;;;11.32;4.82;;;1.50;99.90;;;;;;5052460;28;20048;-73
2021/12/21 12:08:46;;;;;;;13.52;5.18;;;1.60;99.90;;;;;;5050941;28;20394;-71
2021/12/21 12:11:39;;;;;;;11.00;5.03;;;1.60;99.90;;;;;;5051994;28;20049;-68
2021/12/21 12:14:18;;;;;;;12.05;5.47;;;1.70;99.90;;;;;;5052786;28;20116;-71
2021/12/21 12:16:58;;;;;;;14.93;5.53;;;1.70;99.90;;;;;;5052212;28;20052;-72
2021/12/21 12:19:31;;;;;;;15.07;5.80;;;1.80;99.90;;;;;;5047564;28;20113;-69
2021/12/21 12:21:59;;;;;;;12.73;5.88;;;1.80;99.90;;;;;;5051342;28;20120;-72
2021/12/21 12:24:31;;;;;;;11.15;5.38;;;1.90;99.90;;;;;;5052460;28;20377;-73
2021/12/21 12:27:20;;;;;;;13.48;5.13;;;1.90;99.90;;;;;;5032392;28;20057;-72
2021/12/21 12:30:01;;;;;;;12.45;5.45;;;2.00;99.90;;;;;;5049743;28;20049;-70
2021/12/21 12:32:40;;;;;;;9.68;4.63;;;2.30;99.90;;;;;;5032996;28;20087;-70
2021/12/21 12:35:20;;;;;;;9.40;4.80;;;2.00;99.90;;;;;;5051873;28;20177;-72
2021/12/21 12:37:57;;;;;;;15.35;6.07;;;2.10;99.90;;;;;;5051400;28;20439;-71
2021/12/21 12:40:54;;;;;;;11.48;5.35;;;2.10;99.90;;;;;;5032280;28;20285;-72
2021/12/21 12:43:28;;;;;;;12.55;5.65;;;2.10;99.90;;;;;;4952098;28;20066;-69
2021/12/21 12:45:55;;;;;;;11.90;6.28;;;2.10;99.90;;;;;;4950040;28;20090;-70
2021/12/21 12:48:26;;;;;;;15.05;6.18;;;2.10;99.90;;;;;;4941023;28;20109;-71
2021/12/21 12:50:55;;;;;;;11.38;5.28;;;2.10;99.90;;;;;;4935422;28;20047;-71
2021/12/21 12:53:21;;;;;;;14.50;5.82;;;2.10;99.90;;;;;;4935517;28;20620;-72
2021/12/21 12:55:55;;;;;;;13.60;6.10;;;3.60;99.90;;;;;;4933607;28;20059;-72
2021/12/21 12:58:24;;;;;;;12.27;5.40;;;2.10;99.90;;;;;;4964156;28;20122;-69
2021/12/21 13:00:57;;;;;;;9.82;5.25;;;2.80;99.90;;;;;;4951900;28;20053;-70
2021/12/21 13:03:32;;;;;;;11.50;5.93;;;2.00;99.90;;;;;;4952217;28;20047;-72
2021/12/21 13:05:59;;;;;;;13.55;5.65;;;2.00;99.90;;;;;;4952728;28;20098;-72
2021/12/21 13:08:29;;;;;;;13.77;6.38;;;2.00;99.90;;;;;;4954895;28;20125;-72
2021/12/21 13:10:58;;;;;;;12.88;6.43;;;2.10;99.90;;;;;;4951593;28;20071;-72
2021/12/21 13:13:35;;;;;;;14.20;6.03;;;3.50;99.90;;;;;;4951291;28;20479;-71
2021/12/21 13:16:15;;;;;;;13.10;6.15;;;2.00;99.90;;;;;;4951901;28;20049;-73
2021/12/21 13:18:43;;;;;;;11.75;5.68;;;2.00;99.90;;;;;;4957180;28;20082;-71
2021/12/21 13:21:29;;;;;;;13.50;7.03;;;2.00;99.90;;;;;;5023376;28;20129;-70
2021/12/21 13:24:11;;;;;;;13.73;6.13;;;2.00;99.90;;;;;;5012785;28;20057;-72
2021/12/21 13:26:45;;;;;;;13.38;6.70;;;2.00;99.90;;;;;;5030465;28;20044;-71
2021/12/21 13:29:14;;;;;;;12.90;6.85;;;2.10;99.90;;;;;;5034581;28;20048;-74
2021/12/21 13:31:40;;;;;;;14.25;7.00;;;2.10;99.90;;;;;;5035739;28;20041;-72
2021/12/21 13:34:06;;;;;;;14.48;6.55;;;2.10;99.90;;;;;;5033479;28;20049;-73
2021/12/21 13:36:43;;;;;;;15.77;6.57;;;2.10;99.90;;;;;;5030126;28;20037;-74
2021/12/21 13:39:34;;;;;;;14.95;6.90;;;2.10;99.90;;;;;;5027791;28;20397;-72
2021/12/21 13:42:06;;;;;;;13.73;6.57;;;2.10;99.90;;;;;;5030504;28;20139;-71
2021/12/21 13:44:36;;;;;;;14.13;6.23;;;2.10;99.90;;;;;;5028937;28;20049;-78
2021/12/21 13:47:20;;;;;;;13.18;6.28;;;2.10;99.90;;;;;;5009546;28;20405;-80
2021/12/21 13:50:06;;;;;;;13.98;6.32;;;2.10;99.90;;;;;;5010556;28;20041;-74
2021/12/21 13:52:41;;;;;;;12.32;6.30;;;2.10;99.90;;;;;;5030693;28;20045;-72
2021/12/21 13:55:20;;;;;;;14.82;7.53;;;2.10;99.90;;;;;;5027755;28;20041;-71
2021/12/21 13:57:51;;;;;;;18.48;6.75;;;2.10;99.90;;;;;;5034731;28;20060;-70
2021/12/21 14:00:18;;;;;;;12.73;6.28;;;2.10;99.90;;;;;;5048457;28;20064;-72
2021/12/21 14:03:00;;;;;;;12.70;6.53;;;2.10;99.90;;;;;;5049895;28;20045;-71